Time;durP1;ratioP1;P1;durP2;ratioP2;P2;SDS_P1;SDS_P2;PMS_P1;PMS_P2;Temp;Humidity;BMP_temperature;BMP_pressure;BME280_temperature;BME280_humidity;BME280_pressure;Samples;Min_cycle;Max_cycle;Signal;HPM_P1;HPM_P2
2023/10/20 00:00:14;;;;;;;6.15;3.50;;;;;;;;;;5114135;28;20424;-72
2023/10/20 00:02:40;;;;;;;4.40;3.10;;;;;;;;;;5083993;28;20027;-73
2023/10/20 00:05:06;;;;;;;4.75;3.05;;;;;;;;;;5104093;28;20069;-74
2023/10/20 00:07:32;;;;;;;3.95;3.20;;;;;;;;;;5093770;28;20052;-73
2023/10/20 00:09:59;;;;;;;4.53;2.90;;;;;;;;;;5093654;28;20028;-73
2023/10/20 00:12:25;;;;;;;3.90;2.92;;;;;;;;;;5093133;28;20503;-74
2023/10/20 00:14:51;;;;;;;2.92;2.63;;;;;;;;;;5093380;28;20078;-73
2023/10/20 00:17:17;;;;;;;6.07;3.17;;;;;;;;;;5093299;28;20052;-73
2023/10/20 00:19:43;;;;;;;4.90;2.83;;;;;;;;;;5092988;28;20044;-73
2023/10/20 00:22:10;;;;;;;4.05;2.80;;;;;;;;;;5093336;28;20056;-73
2023/10/20 00:24:36;;;;;;;5.45;2.60;;;;;;;;;;5093090;28;20502;-73
2023/10/20 00:27:03;;;;;;;4.22;2.80;;;;;;;;;;5093207;28;20148;-73
2023/10/20 00:29:29;;;;;;;3.92;2.65;;;;;;;;;;5093077;28;20024;-73
2023/10/20 00:31:55;;;;;;;3.58;2.47;;;;;;;;;;5092767;28;20501;-73
2023/10/20 00:34:21;;;;;;;4.70;2.83;;;;;;;;;;5094078;28;20028;-73
2023/10/20 00:36:47;;;;;;;3.90;2.47;;;;;;;;;;5097330;28;20054;-73
2023/10/20 00:39:13;;;;;;;4.72;2.40;;;;;;;;;;5098409;28;20137;-72
2023/10/20 00:41:39;;;;;;;3.08;2.47;;;;;;;;;;5093016;28;20020;-72
2023/10/20 00:44:05;;;;;;;6.00;2.83;;;;;;;;;;5092654;28;20150;-72
2023/10/20 00:46:31;;;;;;;3.40;2.60;;;;;;;;;;5092531;28;20060;-72
2023/10/20 00:48:58;;;;;;;7.10;2.70;;;;;;;;;;5092529;28;20027;-73
2023/10/20 00:51:24;;;;;;;4.47;2.47;;;;;;;;;;5092339;28;20023;-72
2023/10/20 00:53:50;;;;;;;4.57;2.30;;;;;;;;;;5092326;28;20035;-72
2023/10/20 00:56:17;;;;;;;3.15;2.40;;;;;;;;;;5093137;28;20031;-73
2023/10/20 00:58:43;;;;;;;5.20;2.72;;;;;;;;;;5093912;28;20086;-72
2023/10/20 01:01:09;;;;;;;3.22;2.65;;;;;;;;;;5094368;28;20028;-72
2023/10/20 01:03:35;;;;;;;4.30;3.10;;;;;;;;;;5093442;28;20494;-73
2023/10/20 01:06:03;;;;;;;3.75;2.70;;;;;;;;;;5092546;28;20050;-73
2023/10/20 01:08:30;;;;;;;3.40;2.72;;;;;;;;;;5092286;28;20144;-73
2023/10/20 01:10:56;;;;;;;4.38;3.13;;;;;;;;;;5092056;28;20096;-73
2023/10/20 01:13:22;;;;;;;4.75;3.28;;;;;;;;;;5092138;28;20099;-74
2023/10/20 01:15:49;;;;;;;4.20;2.88;;;;;;;;;;5092316;28;20390;-73
2023/10/20 01:18:15;;;;;;;4.00;3.33;;;;;;;;;;5092189;28;20032;-73
2023/10/20 01:20:41;;;;;;;4.78;3.15;;;;;;;;;;5092050;28;20480;-74
2023/10/20 01:23:07;;;;;;;5.03;3.70;;;;;;;;;;5091527;28;20021;-73
2023/10/20 01:25:33;;;;;;;5.72;3.72;;;;;;;;;;5092114;28;20022;-74
2023/10/20 01:27:59;;;;;;;7.30;4.85;;;;;;;;;;5092066;28;20063;-72
2023/10/20 01:30:25;;;;;;;5.03;4.18;;;;;;;;;;5091969;28;20032;-73
2023/10/20 01:32:51;;;;;;;6.57;4.70;;;;;;;;;;5092667;28;20055;-74
2023/10/20 01:35:17;;;;;;;6.38;4.15;;;;;;;;;;5093023;28;20081;-73
2023/10/20 01:37:43;;;;;;;6.43;4.97;;;;;;;;;;5092022;28;20422;-73
2023/10/20 01:40:12;;;;;;;7.03;4.70;;;;;;;;;;5091795;28;20023;-73
2023/10/20 01:42:38;;;;;;;6.93;5.57;;;;;;;;;;5091747;28;20483;-73
2023/10/20 01:45:05;;;;;;;9.38;6.00;;;;;;;;;;5091865;28;20060;-73
2023/10/20 01:47:31;;;;;;;7.93;5.55;;;;;;;;;;5091828;28;20513;-74
2023/10/20 01:49:57;;;;;;;7.90;6.03;;;;;;;;;;5091728;28;20020;-74
2023/10/20 01:52:23;;;;;;;7.10;5.90;;;;;;;;;;5091721;28;20028;-73
2023/10/20 01:54:48;;;;;;;8.00;5.85;;;;;;;;;;5091853;28;20052;-74
2023/10/20 01:57:14;;;;;;;9.68;6.70;;;;;;;;;;5091950;28;20124;-73
2023/10/20 01:59:40;;;;;;;8.60;6.07;;;;;;;;;;5091929;28;20024;-73
2023/10/20 02:02:07;;;;;;;8.60;6.32;;;;;;;;;;5091682;28;20028;-73
2023/10/20 02:04:33;;;;;;;9.98;5.75;;;;;;;;;;5092565;28;20020;-74
2023/10/20 02:06:59;;;;;;;9.80;5.95;;;;;;;;;;5091778;28;20504;-73
2023/10/20 02:09:25;;;;;;;11.43;6.57;;;;;;;;;;5091453;28;20032;-73
2023/10/20 02:11:52;;;;;;;7.50;6.45;;;;;;;;;;5091709;28;20031;-73
2023/10/20 02:14:18;;;;;;;11.18;6.50;;;;;;;;;;5091721;28;20020;-72
2023/10/20 02:16:45;;;;;;;10.50;6.25;;;;;;;;;;5091579;28;20028;-73
2023/10/20 02:19:10;;;;;;;8.27;6.47;;;;;;;;;;5091837;28;20021;-72
2023/10/20 02:21:38;;;;;;;11.40;6.63;;;;;;;;;;5091524;28;20020;-72
2023/10/20 02:24:04;;;;;;;10.70;6.75;;;;;;;;;;5091650;28;20491;-72
2023/10/20 02:26:30;;;;;;;10.55;7.30;;;;;;;;;;5091535;28;20027;-73
2023/10/20 02:28:56;;;;;;;10.48;7.53;;;;;;;;;;5091656;28;20024;-73
2023/10/20 02:31:23;;;;;;;10.15;7.93;;;;;;;;;;5091023;28;20024;-73
2023/10/20 02:33:49;;;;;;;13.55;7.88;;;;;;;;;;5091562;28;20039;-74
2023/10/20 02:36:17;;;;;;;14.48;8.07;;;;;;;;;;5091591;28;20077;-73
2023/10/20 02:38:43;;;;;;;12.50;8.35;;;;;;;;;;5091283;28;20052;-73
2023/10/20 02:41:09;;;;;;;11.13;8.05;;;;;;;;;;5091240;28;20410;-73
2023/10/20 02:43:36;;;;;;;11.55;8.05;;;;;;;;;;5094597;28;20149;-73
2023/10/20 02:46:02;;;;;;;10.50;7.53;;;;;;;;;;5095257;28;20023;-74
2023/10/20 02:48:28;;;;;;;10.35;7.70;;;;;;;;;;5094940;28;20050;-74
2023/10/20 02:50:54;;;;;;;10.70;7.57;;;;;;;;;;5094950;28;20137;-73
2023/10/20 02:53:20;;;;;;;10.40;7.88;;;;;;;;;;5095078;28;20037;-73
2023/10/20 02:55:46;;;;;;;10.90;7.65;;;;;;;;;;5096255;28;20032;-74
2023/10/20 02:58:13;;;;;;;11.77;8.18;;;;;;;;;;5094726;28;20027;-74
2023/10/20 03:00:49;;;;;;;13.73;8.75;;;;;;;;;;5095802;28;20028;-74
2023/10/20 03:03:17;;;;;;;10.15;7.00;;;;;;;;;;5095226;28;20031;-74
2023/10/20 03:05:43;;;;;;;10.93;7.47;;;;;;;;;;5094908;28;20012;-73
2023/10/20 03:08:10;;;;;;;9.55;7.40;;;;;;;;;;5097019;28;20020;-73
2023/10/20 03:10:36;;;;;;;13.60;8.07;;;;;;;;;;5095149;28;20024;-73
2023/10/20 03:13:04;;;;;;;9.50;7.13;;;;;;;;;;5094235;28;20454;-72
2023/10/20 03:15:30;;;;;;;12.38;6.85;;;;;;;;;;5094516;28;20077;-72
2023/10/20 03:17:56;;;;;;;10.93;7.70;;;;;;;;;;5094439;28;20032;-72
2023/10/20 03:20:28;;;;;;;12.55;7.32;;;;;;;;;;5094271;28;20392;-73
2023/10/20 03:22:54;;;;;;;10.15;7.00;;;;;;;;;;5077362;28;20495;-74
2023/10/20 03:25:20;;;;;;;11.90;6.90;;;;;;;;;;5095356;28;20032;-73
2023/10/20 03:27:47;;;;;;;11.57;7.45;;;;;;;;;;5076239;28;20509;-73
2023/10/20 03:30:15;;;;;;;11.65;7.28;;;;;;;;;;5094092;28;20024;-74
2023/10/20 03:32:41;;;;;;;9.35;6.88;;;;;;;;;;5093846;28;20099;-75
2023/10/20 03:35:07;;;;;;;10.25;6.78;;;;;;;;;;5092744;28;20567;-72
2023/10/20 03:37:38;;;;;;;11.20;6.50;;;;;;;;;;5092843;28;20070;-74
2023/10/20 03:40:04;;;;;;;10.50;6.85;;;;;;;;;;5092237;28;20340;-76
2023/10/20 03:42:30;;;;;;;9.82;6.70;;;;;;;;;;5092043;28;20016;-74
2023/10/20 03:44:57;;;;;;;9.90;6.63;;;;;;;;;;5093156;28;20519;-72
2023/10/20 03:47:27;;;;;;;9.57;7.13;;;;;;;;;;5092768;28;20027;-72
2023/10/20 03:49:57;;;;;;;8.55;6.68;;;;;;;;;;5092885;28;20024;-73
2023/10/20 03:52:23;;;;;;;10.95;6.45;;;;;;;;;;5092466;28;20059;-76
2023/10/20 03:54:52;;;;;;;10.05;6.72;;;;;;;;;;5092482;28;20059;-73
2023/10/20 03:57:19;;;;;;;12.63;6.97;;;;;;;;;;5093020;28;20055;-72
2023/10/20 03:59:48;;;;;;;10.80;6.80;;;;;;;;;;5092202;28;20024;-74
2023/10/20 04:02:13;;;;;;;8.57;6.18;;;;;;;;;;5093247;28;20027;-73
2023/10/20 04:04:39;;;;;;;13.20;7.75;;;;;;;;;;5094435;28;20387;-73
2023/10/20 04:07:07;;;;;;;10.38;7.10;;;;;;;;;;5093280;28;20103;-73
2023/10/20 04:09:33;;;;;;;9.88;6.75;;;;;;;;;;5093135;28;20020;-73
2023/10/20 04:11:59;;;;;;;10.93;6.75;;;;;;;;;;5093084;28;20028;-73
2023/10/20 04:14:25;;;;;;;11.20;7.03;;;;;;;;;;5092993;28;20120;-73
2023/10/20 04:16:51;;;;;;;13.07;7.47;;;;;;;;;;5093209;28;20024;-72
2023/10/20 04:19:17;;;;;;;13.50;6.80;;;;;;;;;;5092988;28;20054;-73
2023/10/20 04:21:43;;;;;;;11.20;7.32;;;;;;;;;;5093174;28;20024;-73
2023/10/20 04:24:10;;;;;;;10.57;6.93;;;;;;;;;;5092994;28;20012;-73
2023/10/20 04:26:37;;;;;;;11.15;7.63;;;;;;;;;;5093370;28;20039;-72
2023/10/20 04:48:15;;;;;;;10.27;7.22;;;;;;;;;;5092645;28;20111;-74
2023/10/20 04:51:08;;;;;;;10.57;6.97;;;;;;;;;;5095992;28;20043;-74
2023/10/20 04:53:53;;;;;;;12.00;7.00;;;;;;;;;;5090734;28;20538;-76
2023/10/20 04:56:38;;;;;;;9.73;6.72;;;;;;;;;;5096690;28;20467;-74
2023/10/20 04:59:05;;;;;;;9.77;6.22;;;;;;;;;;5102314;28;20154;-74
2023/10/20 05:01:45;;;;;;;11.80;6.28;;;;;;;;;;5108473;28;20020;-74
2023/10/20 05:04:28;;;;;;;10.35;6.68;;;;;;;;;;5115449;28;20479;-72
2023/10/20 05:07:08;;;;;;;9.73;6.43;;;;;;;;;;5118129;28;20012;-74
2023/10/20 05:09:40;;;;;;;9.00;6.13;;;;;;;;;;5103788;28;20088;-73
2023/10/20 05:12:06;;;;;;;9.50;6.65;;;;;;;;;;5121946;28;20016;-73
2023/10/20 05:14:32;;;;;;;10.10;6.53;;;;;;;;;;5117897;28;20024;-73
2023/10/20 05:16:58;;;;;;;9.65;6.05;;;;;;;;;;5121705;28;20024;-73
2023/10/20 05:19:25;;;;;;;9.00;6.15;;;;;;;;;;5135899;28;20031;-73
2023/10/20 05:21:51;;;;;;;9.18;6.43;;;;;;;;;;5115375;28;20065;-75
2023/10/20 05:24:17;;;;;;;9.15;6.07;;;;;;;;;;5124349;28;20036;-74
2023/10/20 05:26:46;;;;;;;11.73;6.40;;;;;;;;;;5122371;28;20024;-74
2023/10/20 05:29:14;;;;;;;10.38;6.57;;;;;;;;;;5109663;28;20024;-73
2023/10/20 05:31:40;;;;;;;11.43;6.50;;;;;;;;;;5097177;28;20031;-75
2023/10/20 05:34:07;;;;;;;10.43;6.65;;;;;;;;;;5091607;28;20101;-75
2023/10/20 05:36:33;;;;;;;12.43;7.20;;;;;;;;;;5094316;28;20027;-74
2023/10/20 05:38:59;;;;;;;10.57;6.97;;;;;;;;;;5089113;28;20410;-77
2023/10/20 05:41:25;;;;;;;11.95;7.15;;;;;;;;;;5086405;28;20023;-75
2023/10/20 05:43:52;;;;;;;12.75;7.00;;;;;;;;;;5091386;28;20035;-75
2023/10/20 05:46:18;;;;;;;11.40;7.05;;;;;;;;;;5095102;28;20056;-76
2023/10/20 05:48:45;;;;;;;12.20;7.82;;;;;;;;;;5088790;28;20387;-76
2023/10/20 05:51:12;;;;;;;11.00;7.13;;;;;;;;;;5096863;28;20031;-76
2023/10/20 05:53:38;;;;;;;9.40;6.57;;;;;;;;;;5083346;28;20506;-74
2023/10/20 05:56:04;;;;;;;9.57;6.75;;;;;;;;;;5094859;28;20032;-74
2023/10/20 05:58:33;;;;;;;9.50;6.43;;;;;;;;;;5086203;28;20028;-74
2023/10/20 06:01:09;;;;;;;9.57;6.10;;;;;;;;;;5091110;28;20027;-72
2023/10/20 06:03:35;;;;;;;9.40;6.10;;;;;;;;;;5092849;28;20174;-73
2023/10/20 06:06:03;;;;;;;9.07;6.22;;;;;;;;;;5090524;28;20035;-75
2023/10/20 06:08:29;;;;;;;9.70;6.45;;;;;;;;;;5099537;28;20024;-75
2023/10/20 06:10:59;;;;;;;9.00;6.50;;;;;;;;;;5097480;28;20035;-75
2023/10/20 06:13:25;;;;;;;8.93;6.13;;;;;;;;;;5095592;28;20035;-75
2023/10/20 06:15:51;;;;;;;9.18;6.28;;;;;;;;;;5087847;28;20024;-75
2023/10/20 06:18:18;;;;;;;7.35;5.57;;;;;;;;;;5107461;28;20056;-77
2023/10/20 06:20:44;;;;;;;7.60;5.60;;;;;;;;;;5115757;28;20027;-77
2023/10/20 06:23:10;;;;;;;8.50;5.70;;;;;;;;;;5115036;28;20463;-73
2023/10/20 06:25:36;;;;;;;9.90;6.35;;;;;;;;;;5094158;28;20028;-73
2023/10/20 06:28:02;;;;;;;10.15;6.18;;;;;;;;;;5094742;28;20515;-73
2023/10/20 06:30:28;;;;;;;9.43;6.22;;;;;;;;;;5094679;28;20024;-73
2023/10/20 06:33:11;;;;;;;8.50;5.90;;;;;;;;;;5094476;28;20038;-72
2023/10/20 06:35:49;;;;;;;10.52;6.55;;;;;;;;;;5094955;28;20383;-73
2023/10/20 06:38:17;;;;;;;10.90;5.95;;;;;;;;;;5094911;28;20024;-73
2023/10/20 06:40:44;;;;;;;8.05;5.68;;;;;;;;;;5094661;28;20544;-75
2023/10/20 06:43:10;;;;;;;8.55;5.97;;;;;;;;;;5094746;28;20029;-73
2023/10/20 06:45:36;;;;;;;8.43;5.53;;;;;;;;;;5095060;28;20020;-73
2023/10/20 06:48:02;;;;;;;14.02;6.75;;;;;;;;;;5094876;28;20059;-73
2023/10/20 06:50:28;;;;;;;9.02;5.93;;;;;;;;;;5094393;28;20050;-72
2023/10/20 06:52:54;;;;;;;11.13;6.57;;;;;;;;;;5094041;28;20024;-73
2023/10/20 06:55:21;;;;;;;10.68;7.25;;;;;;;;;;5096309;28;20062;-71
2023/10/20 06:57:47;;;;;;;9.68;5.68;;;;;;;;;;5099605;28;20021;-73
2023/10/20 07:00:17;;;;;;;9.95;6.50;;;;;;;;;;5096053;28;20024;-73
2023/10/20 07:02:43;;;;;;;12.85;6.55;;;;;;;;;;5095443;28;20395;-71
2023/10/20 07:05:10;;;;;;;10.88;6.93;;;;;;;;;;5094294;28;20364;-71
2023/10/20 07:07:36;;;;;;;12.10;6.82;;;;;;;;;;5094111;28;20021;-72
2023/10/20 07:10:02;;;;;;;11.73;6.53;;;;;;;;;;5093766;28;20475;-72
2023/10/20 07:12:29;;;;;;;9.85;6.57;;;;;;;;;;5093694;28;20020;-73
2023/10/20 07:14:55;;;;;;;12.30;7.15;;;;;;;;;;5093981;28;20103;-73
2023/10/20 07:17:21;;;;;;;10.75;7.28;;;;;;;;;;5094218;28;20036;-73
2023/10/20 07:19:47;;;;;;;11.38;6.93;;;;;;;;;;5094075;28;20073;-72
2023/10/20 07:22:13;;;;;;;12.23;7.95;;;;;;;;;;5093902;28;20024;-72
2023/10/20 07:24:39;;;;;;;15.27;8.60;;;;;;;;;;5094029;28;20020;-74
2023/10/20 07:27:05;;;;;;;18.90;11.95;;;;;;;;;;5094122;28;20047;-73
2023/10/20 07:29:31;;;;;;;15.00;9.57;;;;;;;;;;5094134;28;20020;-77
2023/10/20 07:31:58;;;;;;;16.20;9.43;;;;;;;;;;5094083;28;20025;-72
2023/10/20 07:34:25;;;;;;;20.75;10.25;;;;;;;;;;5093951;28;20056;-73
2023/10/20 07:36:51;;;;;;;20.40;11.93;;;;;;;;;;5092986;28;20024;-72
2023/10/20 07:39:17;;;;;;;19.67;11.02;;;;;;;;;;5093339;28;20048;-73
2023/10/20 07:41:47;;;;;;;19.90;12.40;;;;;;;;;;5093561;28;20043;-73
2023/10/20 07:44:15;;;;;;;21.33;13.07;;;;;;;;;;5093642;28;20020;-72
2023/10/20 07:46:42;;;;;;;21.30;13.38;;;;;;;;;;5093396;28;20107;-72
2023/10/20 07:49:11;;;;;;;23.55;14.43;;;;;;;;;;5093515;28;20038;-72
2023/10/20 07:51:37;;;;;;;21.88;13.90;;;;;;;;;;5092090;28;20031;-73
2023/10/20 07:54:03;;;;;;;24.85;14.45;;;;;;;;;;5093338;28;20464;-72
2023/10/20 07:56:30;;;;;;;26.75;15.18;;;;;;;;;;5093483;28;20020;-73
2023/10/20 07:58:56;;;;;;;25.23;14.50;;;;;;;;;;5093837;28;20062;-77
2023/10/20 08:01:23;;;;;;;22.98;14.25;;;;;;;;;;5093590;28;20032;-73
2023/10/20 08:03:49;;;;;;;28.13;15.15;;;;;;;;;;5093759;28;20035;-73
2023/10/20 08:06:15;;;;;;;24.67;14.13;;;;;;;;;;5093136;28;20020;-74
2023/10/20 08:08:41;;;;;;;25.05;14.18;;;;;;;;;;5093294;28;20028;-73
2023/10/20 08:11:07;;;;;;;23.58;13.45;;;;;;;;;;5093930;28;20447;-73
2023/10/20 08:13:34;;;;;;;26.17;14.85;;;;;;;;;;5093692;28;20110;-73
2023/10/20 08:16:00;;;;;;;25.40;13.65;;;;;;;;;;5093015;28;20110;-74
2023/10/20 08:18:29;;;;;;;21.65;13.25;;;;;;;;;;5092639;28;20024;-75
2023/10/20 08:21:02;;;;;;;22.42;13.27;;;;;;;;;;5092911;28;20468;-74
2023/10/20 08:23:28;;;;;;;21.80;13.57;;;;;;;;;;5092797;28;20020;-74
2023/10/20 08:25:54;;;;;;;22.95;13.32;;;;;;;;;;5092544;28;20024;-72
2023/10/20 08:28:20;;;;;;;17.70;11.65;;;;;;;;;;5093397;28;20548;-74
2023/10/20 08:30:46;;;;;;;28.35;14.48;;;;;;;;;;5093512;28;20028;-77
2023/10/20 08:33:12;;;;;;;22.30;12.93;;;;;;;;;;5093364;28;20123;-75
2023/10/20 08:35:38;;;;;;;22.35;13.25;;;;;;;;;;5092705;28;20038;-73
2023/10/20 08:38:04;;;;;;;21.02;12.85;;;;;;;;;;5092521;28;20506;-74
2023/10/20 08:40:36;;;;;;;19.90;12.13;;;;;;;;;;5093078;28;20027;-73
2023/10/20 08:43:05;;;;;;;25.38;12.00;;;;;;;;;;5094268;28;20019;-73
2023/10/20 08:45:32;;;;;;;20.73;12.43;;;;;;;;;;5094962;28;20042;-73
2023/10/20 08:48:02;;;;;;;19.55;12.68;;;;;;;;;;5092697;28;20102;-73
2023/10/20 08:50:31;;;;;;;18.55;12.00;;;;;;;;;;5098057;28;20084;-77
2023/10/20 08:52:58;;;;;;;16.60;10.57;;;;;;;;;;5097333;28;20127;-75
2023/10/20 08:55:24;;;;;;;17.50;10.98;;;;;;;;;;5093784;28;20031;-74
2023/10/20 08:57:50;;;;;;;17.33;10.98;;;;;;;;;;5092552;28;20024;-77
2023/10/20 09:00:20;;;;;;;22.13;11.38;;;;;;;;;;5093749;28;20028;-76
2023/10/20 09:02:47;;;;;;;16.55;10.52;;;;;;;;;;5092929;28;20396;-72
2023/10/20 09:05:20;;;;;;;16.85;10.07;;;;;;;;;;5092995;28;20502;-74
2023/10/20 09:07:53;;;;;;;17.00;10.30;;;;;;;;;;5092946;28;20028;-73
2023/10/20 09:10:19;;;;;;;16.27;10.18;;;;;;;;;;5094102;28;20109;-74
2023/10/20 09:12:45;;;;;;;16.17;9.90;;;;;;;;;;5095277;28;20020;-74
2023/10/20 09:15:11;;;;;;;15.93;10.20;;;;;;;;;;5095115;28;20445;-73
2023/10/20 09:17:37;;;;;;;14.38;8.98;;;;;;;;;;5094818;28;20020;-74
2023/10/20 09:20:05;;;;;;;15.25;9.20;;;;;;;;;;5092467;28;20020;-72
2023/10/20 09:22:31;;;;;;;15.48;9.88;;;;;;;;;;5092920;28;20107;-75
2023/10/20 09:24:57;;;;;;;16.75;9.82;;;;;;;;;;5095330;28;20141;-74
2023/10/20 09:27:23;;;;;;;18.13;9.75;;;;;;;;;;5104715;28;20028;-75
2023/10/20 09:29:51;;;;;;;19.98;10.27;;;;;;;;;;5102502;28;20373;-76
2023/10/20 09:32:18;;;;;;;15.15;9.52;;;;;;;;;;5106656;28;20028;-76
2023/10/20 09:34:44;;;;;;;15.88;8.98;;;;;;;;;;5086179;28;20027;-74
2023/10/20 09:37:10;;;;;;;15.70;9.63;;;;;;;;;;5079025;28;20429;-72
2023/10/20 09:39:40;;;;;;;16.17;9.20;;;;;;;;;;5096536;28;20069;-76
2023/10/20 09:42:06;;;;;;;14.57;9.45;;;;;;;;;;5101983;28;20027;-74
2023/10/20 09:44:42;;;;;;;19.25;9.32;;;;;;;;;;5101001;28;20069;-72
2023/10/20 09:47:19;;;;;;;15.90;9.40;;;;;;;;;;5108116;28;20050;-75
2023/10/20 09:49:45;;;;;;;19.42;11.18;;;;;;;;;;5112024;28;20040;-75
2023/10/20 09:52:12;;;;;;;15.43;9.65;;;;;;;;;;5111658;28;20020;-75
2023/10/20 09:54:38;;;;;;;12.95;8.40;;;;;;;;;;5113714;28;20023;-73
2023/10/20 09:57:08;;;;;;;13.85;8.50;;;;;;;;;;5109405;28;20016;-74
2023/10/20 09:59:34;;;;;;;13.02;8.05;;;;;;;;;;5106904;28;20020;-73
2023/10/20 10:02:00;;;;;;;15.27;9.60;;;;;;;;;;5082595;28;20035;-74
2023/10/20 10:04:28;;;;;;;20.35;7.60;;;;;;;;;;5097831;28;20027;-73
2023/10/20 10:06:55;;;;;;;13.10;7.55;;;;;;;;;;5097737;28;20044;-77
2023/10/20 10:09:21;;;;;;;13.65;8.55;;;;;;;;;;5096352;28;20027;-78
2023/10/20 10:11:48;;;;;;;14.60;7.25;;;;;;;;;;5097801;28;20028;-76
2023/10/20 10:14:25;;;;;;;12.88;7.07;;;;;;;;;;5098486;28;20055;-77
2023/10/20 10:16:55;;;;;;;10.80;6.82;;;;;;;;;;5096669;28;20031;-75
2023/10/20 10:19:25;;;;;;;10.57;6.47;;;;;;;;;;5096486;28;20502;-78
2023/10/20 10:21:53;;;;;;;8.57;5.75;;;;;;;;;;5095829;28;20020;-76
2023/10/20 10:24:19;;;;;;;9.85;5.95;;;;;;;;;;5095355;28;20028;-74
2023/10/20 10:26:45;;;;;;;10.60;6.25;;;;;;;;;;5095315;28;20035;-74
2023/10/20 10:29:11;;;;;;;8.38;5.18;;;;;;;;;;5095329;28;20028;-75
2023/10/20 10:31:37;;;;;;;9.00;5.88;;;;;;;;;;5096637;28;20028;-77
2023/10/20 10:34:04;;;;;;;8.85;5.00;;;;;;;;;;5081035;28;20060;-75
2023/10/20 10:36:31;;;;;;;9.32;5.18;;;;;;;;;;5099255;28;20028;-74
2023/10/20 10:38:57;;;;;;;8.88;5.65;;;;;;;;;;5097059;28;20035;-74
2023/10/20 10:41:24;;;;;;;8.80;5.20;;;;;;;;;;5095031;28;20024;-74
2023/10/20 10:43:56;;;;;;;8.32;5.18;;;;;;;;;;5095326;28;20093;-74
2023/10/20 10:46:33;;;;;;;7.85;5.05;;;;;;;;;;5094980;28;20039;-75
2023/10/20 10:49:09;;;;;;;7.43;4.88;;;;;;;;;;5095071;28;20089;-73
2023/10/20 10:51:45;;;;;;;7.93;5.03;;;;;;;;;;5094756;28;20553;-74
2023/10/20 10:54:12;;;;;;;7.55;4.63;;;;;;;;;;5094990;28;20052;-75
2023/10/20 10:56:38;;;;;;;8.52;5.32;;;;;;;;;;5095016;28;20024;-74
2023/10/20 10:59:04;;;;;;;10.57;5.35;;;;;;;;;;5095146;28;20502;-74
2023/10/20 11:01:31;;;;;;;10.48;5.88;;;;;;;;;;5095112;28;20103;-75
2023/10/20 11:03:57;;;;;;;8.50;5.07;;;;;;;;;;5093571;28;20024;-74
2023/10/20 11:06:23;;;;;;;8.23;5.47;;;;;;;;;;5094411;28;20020;-74
2023/10/20 11:08:49;;;;;;;10.48;5.28;;;;;;;;;;5096515;28;20036;-75
2023/10/20 11:11:15;;;;;;;12.65;5.07;;;;;;;;;;5093949;28;20072;-74
2023/10/20 11:13:41;;;;;;;8.02;5.22;;;;;;;;;;5097931;28;20111;-74
2023/10/20 11:16:07;;;;;;;7.80;4.75;;;;;;;;;;5095246;28;20059;-74
2023/10/20 11:18:35;;;;;;;6.47;4.60;;;;;;;;;;5094390;28;20028;-75
2023/10/20 11:21:01;;;;;;;8.70;4.90;;;;;;;;;;5095258;28;20026;-75
2023/10/20 11:23:30;;;;;;;7.75;4.95;;;;;;;;;;5095996;28;20028;-75
2023/10/20 11:25:57;;;;;;;6.13;4.15;;;;;;;;;;5094244;28;20028;-75
2023/10/20 11:28:23;;;;;;;7.57;4.60;;;;;;;;;;5095486;28;20479;-75
2023/10/20 11:30:50;;;;;;;8.07;3.95;;;;;;;;;;5096780;28;20498;-74
2023/10/20 11:33:16;;;;;;;7.28;3.95;;;;;;;;;;5096809;28;20039;-75
2023/10/20 11:35:42;;;;;;;6.60;4.22;;;;;;;;;;5094224;28;20032;-74
2023/10/20 11:38:08;;;;;;;7.82;4.07;;;;;;;;;;5093993;28;20028;-75
2023/10/20 11:40:34;;;;;;;9.27;4.30;;;;;;;;;;5093711;28;20150;-73
2023/10/20 11:43:00;;;;;;;6.47;3.80;;;;;;;;;;5094572;28;20491;-74
2023/10/20 11:45:26;;;;;;;11.25;4.65;;;;;;;;;;5093994;28;20031;-73
2023/10/20 11:47:52;;;;;;;6.28;3.60;;;;;;;;;;5094235;28;20020;-74
2023/10/20 11:50:23;;;;;;;6.50;3.72;;;;;;;;;;5093309;28;20435;-74
2023/10/20 11:52:49;;;;;;;7.10;3.50;;;;;;;;;;5094184;28;20035;-80
2023/10/20 11:55:16;;;;;;;6.20;3.90;;;;;;;;;;5096251;28;20035;-74
2023/10/20 11:57:42;;;;;;;7.28;3.08;;;;;;;;;;5093919;28;20036;-76
2023/10/20 12:00:09;;;;;;;3.70;2.85;;;;;;;;;;5076600;28;20111;-76
2023/10/20 12:02:38;;;;;;;4.20;3.00;;;;;;;;;;5077009;28;20074;-75
2023/10/20 12:05:05;;;;;;;4.75;3.03;;;;;;;;;;5094627;28;20024;-77
2023/10/20 12:07:31;;;;;;;7.63;3.10;;;;;;;;;;5094139;28;20552;-78
2023/10/20 12:09:58;;;;;;;5.28;2.83;;;;;;;;;;5094739;28;20541;-77
2023/10/20 12:12:24;;;;;;;4.88;2.90;;;;;;;;;;5076340;28;20082;-78
2023/10/20 12:14:50;;;;;;;3.88;2.97;;;;;;;;;;5095140;28;20432;-76
2023/10/20 12:17:16;;;;;;;6.20;2.88;;;;;;;;;;5096255;28;20031;-74
2023/10/20 12:19:42;;;;;;;3.83;2.90;;;;;;;;;;5097102;28;20096;-77
2023/10/20 12:22:10;;;;;;;5.63;2.70;;;;;;;;;;5095730;28;20024;-74
2023/10/20 12:24:36;;;;;;;7.32;2.80;;;;;;;;;;5099098;28;20069;-75
2023/10/20 12:27:03;;;;;;;14.48;2.80;;;;;;;;;;5095733;28;20024;-76
2023/10/20 12:29:29;;;;;;;4.35;2.63;;;;;;;;;;5092292;28;20047;-72
2023/10/20 12:31:56;;;;;;;6.95;2.88;;;;;;;;;;5091653;28;20028;-73
2023/10/20 12:34:23;;;;;;;3.13;2.45;;;;;;;;;;5074543;28;20016;-73
2023/10/20 12:36:49;;;;;;;5.55;2.60;;;;;;;;;;5095265;28;20052;-74
2023/10/20 12:39:18;;;;;;;4.70;2.25;;;;;;;;;;5092436;28;20028;-76
2023/10/20 12:41:45;;;;;;;5.43;3.50;;;;;;;;;;5092344;28;20038;-75
2023/10/20 12:44:11;;;;;;;3.00;2.17;;;;;;;;;;5091774;28;20028;-73
2023/10/20 12:46:37;;;;;;;3.72;2.08;;;;;;;;;;5091812;28;20031;-74
2023/10/20 12:49:06;;;;;;;5.65;2.03;;;;;;;;;;5091467;28;20390;-73
2023/10/20 12:51:33;;;;;;;3.17;2.30;;;;;;;;;;5084234;28;20032;-74
2023/10/20 12:53:59;;;;;;;3.22;2.45;;;;;;;;;;5093631;28;20040;-73
2023/10/20 12:56:26;;;;;;;2.72;2.28;;;;;;;;;;5096068;28;20032;-74
2023/10/20 12:58:53;;;;;;;3.72;2.00;;;;;;;;;;5090031;28;20036;-74
2023/10/20 13:01:19;;;;;;;3.97;2.00;;;;;;;;;;5076193;28;20031;-76
2023/10/20 13:03:45;;;;;;;2.63;2.08;;;;;;;;;;5079267;28;20016;-73
2023/10/20 13:06:11;;;;;;;4.75;2.00;;;;;;;;;;5083093;28;20077;-74
2023/10/20 13:08:37;;;;;;;5.57;2.30;;;;;;;;;;5090450;28;20024;-74
2023/10/20 13:11:04;;;;;;;2.72;2.05;;;;;;;;;;5090295;28;20047;-74
2023/10/20 13:13:32;;;;;;;4.85;3.00;;;;;;;;;;5092642;28;20024;-76
2023/10/20 13:16:00;;;;;;;3.22;2.08;;;;;;;;;;5096034;28;20483;-72
2023/10/20 13:18:26;;;;;;;3.30;1.92;;;;;;;;;;5086704;28;20055;-74
2023/10/20 13:20:52;;;;;;;4.93;2.30;;;;;;;;;;5092069;28;20513;-75
2023/10/20 13:23:18;;;;;;;3.45;2.55;;;;;;;;;;5092150;28;20028;-73
2023/10/20 13:25:44;;;;;;;2.58;2.10;;;;;;;;;;5091035;28;20034;-78
2023/10/20 13:28:11;;;;;;;4.35;2.25;;;;;;;;;;5088199;28;20020;-76
2023/10/20 13:30:38;;;;;;;4.30;2.42;;;;;;;;;;5091291;28;20012;-73
2023/10/20 13:33:04;;;;;;;4.35;2.45;;;;;;;;;;5094215;28;20020;-73
2023/10/20 13:35:40;;;;;;;9.85;2.13;;;;;;;;;;5087870;28;20020;-74
2023/10/20 13:38:07;;;;;;;3.70;2.35;;;;;;;;;;5090749;28;20384;-73
2023/10/20 13:40:33;;;;;;;4.38;2.40;;;;;;;;;;5093010;28;20043;-74
2023/10/20 13:42:59;;;;;;;4.35;2.13;;;;;;;;;;5088901;28;20449;-71
2023/10/20 13:45:25;;;;;;;4.35;2.50;;;;;;;;;;5091899;28;20429;-74
2023/10/20 13:47:52;;;;;;;3.58;2.30;;;;;;;;;;5090435;28;20387;-73
2023/10/20 13:50:18;;;;;;;3.50;2.15;;;;;;;;;;5098463;28;20471;-73
2023/10/20 13:52:44;;;;;;;3.58;2.13;;;;;;;;;;5086764;28;20119;-76
2023/10/20 13:55:12;;;;;;;3.70;2.00;;;;;;;;;;5091436;28;20154;-73
2023/10/20 13:57:38;;;;;;;2.63;2.05;;;;;;;;;;5090500;28;20020;-73
2023/10/20 14:00:06;;;;;;;2.45;1.77;;;;;;;;;;5099290;28;20020;-73
2023/10/20 14:02:32;;;;;;;5.05;2.42;;;;;;;;;;5110630;28;20024;-75
2023/10/20 14:04:58;;;;;;;3.08;1.90;;;;;;;;;;5122436;28;20019;-74
2023/10/20 14:07:24;;;;;;;3.67;2.03;;;;;;;;;;5123436;28;20020;-74
2023/10/20 14:09:50;;;;;;;2.72;2.17;;;;;;;;;;5129833;28;20007;-73
2023/10/20 14:12:16;;;;;;;4.32;2.13;;;;;;;;;;5134858;28;20020;-75
2023/10/20 14:14:42;;;;;;;5.25;2.28;;;;;;;;;;5136759;28;20028;-74
2023/10/20 14:17:09;;;;;;;4.35;1.90;;;;;;;;;;5135713;28;20032;-73
2023/10/20 14:19:35;;;;;;;4.03;2.05;;;;;;;;;;5126976;28;20038;-74
2023/10/20 14:22:01;;;;;;;3.95;2.30;;;;;;;;;;5116253;28;20040;-73
2023/10/20 14:24:27;;;;;;;2.40;1.70;;;;;;;;;;5115536;28;20053;-73
2023/10/20 14:26:55;;;;;;;2.90;1.90;;;;;;;;;;5108425;28;20031;-74
2023/10/20 14:29:21;;;;;;;2.30;1.65;;;;;;;;;;5109582;28;20031;-72
2023/10/20 14:31:47;;;;;;;4.28;2.30;;;;;;;;;;5108057;28;20040;-73
2023/10/20 14:34:13;;;;;;;2.70;1.77;;;;;;;;;;5099394;28;20050;-74
2023/10/20 14:36:39;;;;;;;4.60;2.20;;;;;;;;;;5108737;28;20067;-73
2023/10/20 14:39:05;;;;;;;3.15;2.22;;;;;;;;;;5115494;28;20603;-75
2023/10/20 14:41:31;;;;;;;3.95;2.20;;;;;;;;;;5115328;28;20039;-74
2023/10/20 14:43:57;;;;;;;7.10;2.42;;;;;;;;;;5096985;28;20156;-75
2023/10/20 14:46:23;;;;;;;5.80;3.03;;;;;;;;;;5114852;28;20019;-74
2023/10/20 14:48:50;;;;;;;3.92;2.30;;;;;;;;;;5116294;28;20069;-74
2023/10/20 14:51:16;;;;;;;3.92;2.15;;;;;;;;;;5118137;28;20019;-74
2023/10/20 14:53:43;;;;;;;5.50;2.28;;;;;;;;;;5115407;28;20032;-74